sensor_id;sensor_type;location;lat;lon;timestamp;P1;durP1;ratioP1;P2;durP2;ratioP2
18407;SDS011;9330;52.210;21.174;2024-03-08T00:00:22;43.55;;;27.58;;
18407;SDS011;9330;52.210;21.174;2024-03-08T00:02:50;51.35;;;31.52;;
18407;SDS011;9330;52.210;21.174;2024-03-08T00:05:17;52.70;;;30.30;;
18407;SDS011;9330;52.210;21.174;2024-03-08T00:07:44;49.72;;;30.80;;
18407;SDS011;9330;52.210;21.174;2024-03-08T00:10:11;52.33;;;31.55;;
18407;SDS011;9330;52.210;21.174;2024-03-08T00:12:39;56.40;;;34.40;;
18407;SDS011;9330;52.210;21.174;2024-03-08T00:15:07;58.35;;;32.72;;
18407;SDS011;9330;52.210;21.174;2024-03-08T00:17:34;57.08;;;32.70;;
18407;SDS011;9330;52.210;21.174;2024-03-08T00:20:03;59.28;;;33.92;;
18407;SDS011;9330;52.210;21.174;2024-03-08T00:22:33;62.25;;;34.42;;
18407;SDS011;9330;52.210;21.174;2024-03-08T00:25:00;61.22;;;35.72;;
18407;SDS011;9330;52.210;21.174;2024-03-08T00:27:28;64.10;;;34.43;;
18407;SDS011;9330;52.210;21.174;2024-03-08T00:29:56;70.10;;;37.50;;
18407;SDS011;9330;52.210;21.174;2024-03-08T00:32:23;65.90;;;34.53;;
18407;SDS011;9330;52.210;21.174;2024-03-08T00:34:50;69.93;;;36.13;;
18407;SDS011;9330;52.210;21.174;2024-03-08T00:37:19;69.40;;;36.20;;
18407;SDS011;9330;52.210;21.174;2024-03-08T00:39:46;65.53;;;36.25;;
18407;SDS011;9330;52.210;21.174;2024-03-08T00:42:14;65.95;;;34.17;;
18407;SDS011;9330;52.210;21.174;2024-03-08T00:44:41;68.20;;;36.33;;
18407;SDS011;9330;52.210;21.174;2024-03-08T00:47:08;57.30;;;33.78;;
18407;SDS011;9330;52.210;21.174;2024-03-08T00:49:35;62.70;;;35.20;;
18407;SDS011;9330;52.210;21.174;2024-03-08T00:52:03;60.65;;;34.90;;
18407;SDS011;9330;52.210;21.174;2024-03-08T00:54:32;60.60;;;33.92;;
18407;SDS011;9330;52.210;21.174;2024-03-08T00:57:01;59.40;;;35.88;;
18407;SDS011;9330;52.210;21.174;2024-03-08T00:59:28;62.03;;;34.88;;
18407;SDS011;9330;52.210;21.174;2024-03-08T01:01:57;61.45;;;34.75;;
18407;SDS011;9330;52.210;21.174;2024-03-08T01:04:25;66.32;;;36.33;;
18407;SDS011;9330;52.210;21.174;2024-03-08T01:06:54;57.90;;;34.40;;
18407;SDS011;9330;52.210;21.174;2024-03-08T01:09:21;56.35;;;32.83;;
18407;SDS011;9330;52.210;21.174;2024-03-08T01:11:49;58.00;;;34.67;;
18407;SDS011;9330;52.210;21.174;2024-03-08T01:14:16;59.17;;;35.50;;
18407;SDS011;9330;52.210;21.174;2024-03-08T01:16:43;61.75;;;35.65;;
18407;SDS011;9330;52.210;21.174;2024-03-08T01:19:10;55.60;;;33.33;;
18407;SDS011;9330;52.210;21.174;2024-03-08T01:21:36;52.08;;;33.20;;
18407;SDS011;9330;52.210;21.174;2024-03-08T01:24:03;60.03;;;36.03;;
18407;SDS011;9330;52.210;21.174;2024-03-08T01:26:31;54.03;;;34.13;;
18407;SDS011;9330;52.210;21.174;2024-03-08T01:29:00;56.87;;;34.40;;
18407;SDS011;9330;52.210;21.174;2024-03-08T01:31:28;53.17;;;32.60;;
18407;SDS011;9330;52.210;21.174;2024-03-08T01:33:55;54.25;;;33.05;;
18407;SDS011;9330;52.210;21.174;2024-03-08T01:36:21;57.25;;;33.25;;
18407;SDS011;9330;52.210;21.174;2024-03-08T01:38:49;52.97;;;33.37;;
18407;SDS011;9330;52.210;21.174;2024-03-08T01:41:16;53.80;;;34.47;;
18407;SDS011;9330;52.210;21.174;2024-03-08T01:43:43;54.50;;;33.43;;
18407;SDS011;9330;52.210;21.174;2024-03-08T01:46:12;53.97;;;31.83;;
18407;SDS011;9330;52.210;21.174;2024-03-08T01:48:42;56.47;;;34.50;;
18407;SDS011;9330;52.210;21.174;2024-03-08T01:51:09;56.57;;;33.50;;
18407;SDS011;9330;52.210;21.174;2024-03-08T01:53:37;56.47;;;34.00;;
18407;SDS011;9330;52.210;21.174;2024-03-08T01:56:04;57.27;;;35.17;;
18407;SDS011;9330;52.210;21.174;2024-03-08T01:58:33;58.65;;;36.03;;
18407;SDS011;9330;52.210;21.174;2024-03-08T02:01:02;60.63;;;36.00;;
18407;SDS011;9330;52.210;21.174;2024-03-08T02:03:31;61.00;;;36.30;;
18407;SDS011;9330;52.210;21.174;2024-03-08T02:05:57;59.53;;;35.73;;
18407;SDS011;9330;52.210;21.174;2024-03-08T02:08:24;57.67;;;35.07;;
18407;SDS011;9330;52.210;21.174;2024-03-08T02:10:51;56.40;;;34.07;;
18407;SDS011;9330;52.210;21.174;2024-03-08T02:13:18;53.77;;;33.33;;
18407;SDS011;9330;52.210;21.174;2024-03-08T02:15:55;57.13;;;33.90;;
18407;SDS011;9330;52.210;21.174;2024-03-08T02:18:24;59.23;;;35.53;;
18407;SDS011;9330;52.210;21.174;2024-03-08T02:20:53;56.33;;;34.97;;
18407;SDS011;9330;52.210;21.174;2024-03-08T02:23:20;55.10;;;35.13;;
18407;SDS011;9330;52.210;21.174;2024-03-08T02:25:47;60.53;;;36.13;;
18407;SDS011;9330;52.210;21.174;2024-03-08T02:28:14;54.20;;;34.63;;
18407;SDS011;9330;52.210;21.174;2024-03-08T02:30:43;55.03;;;34.63;;
18407;SDS011;9330;52.210;21.174;2024-03-08T02:33:13;58.20;;;34.90;;
18407;SDS011;9330;52.210;21.174;2024-03-08T02:35:41;59.27;;;35.67;;
18407;SDS011;9330;52.210;21.174;2024-03-08T02:38:12;59.70;;;35.03;;
18407;SDS011;9330;52.210;21.174;2024-03-08T02:40:41;59.83;;;35.20;;
18407;SDS011;9330;52.210;21.174;2024-03-08T02:43:08;57.63;;;36.90;;
18407;SDS011;9330;52.210;21.174;2024-03-08T02:45:34;58.72;;;36.03;;
18407;SDS011;9330;52.210;21.174;2024-03-08T02:48:01;59.87;;;36.23;;
18407;SDS011;9330;52.210;21.174;2024-03-08T02:50:28;58.07;;;35.17;;
18407;SDS011;9330;52.210;21.174;2024-03-08T02:52:55;55.53;;;34.77;;
18407;SDS011;9330;52.210;21.174;2024-03-08T02:55:23;59.07;;;35.03;;
18407;SDS011;9330;52.210;21.174;2024-03-08T02:57:51;56.83;;;34.20;;
18407;SDS011;9330;52.210;21.174;2024-03-08T03:00:19;56.97;;;35.00;;
18407;SDS011;9330;52.210;21.174;2024-03-08T03:02:48;52.23;;;33.90;;
18407;SDS011;9330;52.210;21.174;2024-03-08T03:05:17;57.37;;;34.47;;
18407;SDS011;9330;52.210;21.174;2024-03-08T03:07:45;56.50;;;34.57;;
18407;SDS011;9330;52.210;21.174;2024-03-08T03:10:11;54.67;;;34.07;;
18407;SDS011;9330;52.210;21.174;2024-03-08T03:12:43;56.40;;;33.73;;
18407;SDS011;9330;52.210;21.174;2024-03-08T03:15:11;57.20;;;34.90;;
18407;SDS011;9330;52.210;21.174;2024-03-08T03:17:38;60.63;;;36.23;;
18407;SDS011;9330;52.210;21.174;2024-03-08T03:20:05;56.57;;;33.37;;
18407;SDS011;9330;52.210;21.174;2024-03-08T03:22:38;57.53;;;34.30;;
18407;SDS011;9330;52.210;21.174;2024-03-08T03:25:06;53.40;;;32.03;;
18407;SDS011;9330;52.210;21.174;2024-03-08T03:27:34;60.77;;;35.40;;
18407;SDS011;9330;52.210;21.174;2024-03-08T03:30:03;58.03;;;35.13;;
18407;SDS011;9330;52.210;21.174;2024-03-08T03:32:46;56.20;;;33.80;;
18407;SDS011;9330;52.210;21.174;2024-03-08T03:35:13;60.47;;;34.13;;
18407;SDS011;9330;52.210;21.174;2024-03-08T03:37:41;58.13;;;35.00;;
18407;SDS011;9330;52.210;21.174;2024-03-08T03:40:10;55.27;;;34.80;;
18407;SDS011;9330;52.210;21.174;2024-03-08T03:42:39;63.13;;;35.77;;
18407;SDS011;9330;52.210;21.174;2024-03-08T03:45:08;58.83;;;34.13;;
18407;SDS011;9330;52.210;21.174;2024-03-08T03:47:35;55.43;;;36.10;;
18407;SDS011;9330;52.210;21.174;2024-03-08T03:50:03;53.25;;;33.47;;
18407;SDS011;9330;52.210;21.174;2024-03-08T03:52:31;57.70;;;34.80;;
18407;SDS011;9330;52.210;21.174;2024-03-08T03:54:58;57.00;;;34.37;;
18407;SDS011;9330;52.210;21.174;2024-03-08T03:57:24;60.77;;;35.73;;
18407;SDS011;9330;52.210;21.174;2024-03-08T03:59:51;62.60;;;34.70;;
18407;SDS011;9330;52.210;21.174;2024-03-08T04:02:19;54.87;;;33.67;;
18407;SDS011;9330;52.210;21.174;2024-03-08T04:04:46;59.83;;;35.07;;
18407;SDS011;9330;52.210;21.174;2024-03-08T04:07:14;60.20;;;34.53;;
18407;SDS011;9330;52.210;21.174;2024-03-08T04:09:41;59.93;;;36.00;;
18407;SDS011;9330;52.210;21.174;2024-03-08T04:12:09;56.57;;;36.10;;
18407;SDS011;9330;52.210;21.174;2024-03-08T04:14:35;57.10;;;35.37;;
18407;SDS011;9330;52.210;21.174;2024-03-08T04:17:02;62.17;;;37.13;;
18407;SDS011;9330;52.210;21.174;2024-03-08T04:19:31;63.83;;;37.60;;
18407;SDS011;9330;52.210;21.174;2024-03-08T04:21:59;60.77;;;36.87;;
18407;SDS011;9330;52.210;21.174;2024-03-08T04:24:26;61.73;;;36.87;;
18407;SDS011;9330;52.210;21.174;2024-03-08T04:26:53;65.20;;;37.37;;
18407;SDS011;9330;52.210;21.174;2024-03-08T04:29:20;66.60;;;37.50;;
18407;SDS011;9330;52.210;21.174;2024-03-08T04:31:47;60.80;;;36.87;;
18407;SDS011;9330;52.210;21.174;2024-03-08T04:34:13;61.60;;;37.53;;
18407;SDS011;9330;52.210;21.174;2024-03-08T04:36:42;65.15;;;37.85;;
18407;SDS011;9330;52.210;21.174;2024-03-08T04:39:08;60.07;;;36.40;;
18407;SDS011;9330;52.210;21.174;2024-03-08T04:41:38;63.50;;;38.00;;
18407;SDS011;9330;52.210;21.174;2024-03-08T04:44:05;65.93;;;38.57;;
18407;SDS011;9330;52.210;21.174;2024-03-08T04:46:33;65.30;;;38.47;;
18407;SDS011;9330;52.210;21.174;2024-03-08T04:49:00;67.57;;;38.73;;
18407;SDS011;9330;52.210;21.174;2024-03-08T04:51:27;70.93;;;39.53;;
18407;SDS011;9330;52.210;21.174;2024-03-08T04:53:55;65.87;;;39.27;;
18407;SDS011;9330;52.210;21.174;2024-03-08T04:56:22;69.47;;;40.43;;
18407;SDS011;9330;52.210;21.174;2024-03-08T04:58:50;73.67;;;42.30;;
18407;SDS011;9330;52.210;21.174;2024-03-08T05:01:17;72.95;;;41.65;;
18407;SDS011;9330;52.210;21.174;2024-03-08T05:03:44;69.93;;;40.60;;
18407;SDS011;9330;52.210;21.174;2024-03-08T05:06:12;63.37;;;37.90;;
18407;SDS011;9330;52.210;21.174;2024-03-08T05:08:39;71.90;;;41.80;;
18407;SDS011;9330;52.210;21.174;2024-03-08T05:11:07;69.70;;;41.40;;
18407;SDS011;9330;52.210;21.174;2024-03-08T05:13:34;72.83;;;40.60;;
18407;SDS011;9330;52.210;21.174;2024-03-08T05:16:02;75.20;;;41.20;;
18407;SDS011;9330;52.210;21.174;2024-03-08T05:18:30;70.53;;;41.03;;
18407;SDS011;9330;52.210;21.174;2024-03-08T05:20:57;73.60;;;40.70;;
18407;SDS011;9330;52.210;21.174;2024-03-08T05:23:24;68.73;;;41.00;;
18407;SDS011;9330;52.210;21.174;2024-03-08T05:25:50;69.23;;;40.47;;
18407;SDS011;9330;52.210;21.174;2024-03-08T05:28:19;66.17;;;40.87;;
18407;SDS011;9330;52.210;21.174;2024-03-08T05:30:46;71.73;;;40.63;;
18407;SDS011;9330;52.210;21.174;2024-03-08T05:33:12;71.40;;;40.97;;
18407;SDS011;9330;52.210;21.174;2024-03-08T05:35:39;68.60;;;38.33;;
18407;SDS011;9330;52.210;21.174;2024-03-08T05:38:06;70.37;;;40.37;;
18407;SDS011;9330;52.210;21.174;2024-03-08T05:40:33;68.77;;;40.13;;
18407;SDS011;9330;52.210;21.174;2024-03-08T05:43:00;69.20;;;39.30;;
18407;SDS011;9330;52.210;21.174;2024-03-08T05:45:27;66.97;;;39.97;;
18407;SDS011;9330;52.210;21.174;2024-03-08T05:47:54;68.73;;;40.37;;
18407;SDS011;9330;52.210;21.174;2024-03-08T05:50:21;65.87;;;38.90;;
18407;SDS011;9330;52.210;21.174;2024-03-08T05:52:48;68.97;;;40.53;;
18407;SDS011;9330;52.210;21.174;2024-03-08T05:55:15;62.67;;;38.83;;
18407;SDS011;9330;52.210;21.174;2024-03-08T05:57:42;66.75;;;38.42;;
18407;SDS011;9330;52.210;21.174;2024-03-08T06:00:09;65.10;;;39.13;;
18407;SDS011;9330;52.210;21.174;2024-03-08T06:02:38;63.70;;;38.87;;
18407;SDS011;9330;52.210;21.174;2024-03-08T06:05:07;64.50;;;37.37;;
18407;SDS011;9330;52.210;21.174;2024-03-08T06:07:34;63.65;;;37.45;;
18407;SDS011;9330;52.210;21.174;2024-03-08T06:10:01;62.03;;;38.30;;
18407;SDS011;9330;52.210;21.174;2024-03-08T06:12:29;64.57;;;37.87;;
18407;SDS011;9330;52.210;21.174;2024-03-08T06:14:58;63.67;;;38.30;;
18407;SDS011;9330;52.210;21.174;2024-03-08T06:17:25;62.03;;;37.78;;
18407;SDS011;9330;52.210;21.174;2024-03-08T06:19:54;67.03;;;39.53;;
18407;SDS011;9330;52.210;21.174;2024-03-08T06:22:20;60.78;;;37.38;;
18407;SDS011;9330;52.210;21.174;2024-03-08T06:24:47;67.88;;;38.08;;
18407;SDS011;9330;52.210;21.174;2024-03-08T06:27:14;68.90;;;39.42;;
18407;SDS011;9330;52.210;21.174;2024-03-08T06:29:42;65.82;;;38.85;;
18407;SDS011;9330;52.210;21.174;2024-03-08T06:32:09;67.50;;;39.92;;
18407;SDS011;9330;52.210;21.174;2024-03-08T06:34:36;65.28;;;38.67;;
18407;SDS011;9330;52.210;21.174;2024-03-08T06:37:04;66.63;;;41.20;;
18407;SDS011;9330;52.210;21.174;2024-03-08T06:39:31;66.45;;;40.08;;
18407;SDS011;9330;52.210;21.174;2024-03-08T06:41:59;65.05;;;39.88;;
18407;SDS011;9330;52.210;21.174;2024-03-08T06:44:26;67.57;;;42.17;;
18407;SDS011;9330;52.210;21.174;2024-03-08T06:46:53;72.30;;;44.17;;
18407;SDS011;9330;52.210;21.174;2024-03-08T06:49:19;73.78;;;42.38;;
18407;SDS011;9330;52.210;21.174;2024-03-08T06:51:46;73.72;;;44.13;;
18407;SDS011;9330;52.210;21.174;2024-03-08T06:54:14;70.70;;;44.65;;
18407;SDS011;9330;52.210;21.174;2024-03-08T06:56:41;72.82;;;43.75;;
18407;SDS011;9330;52.210;21.174;2024-03-08T06:59:08;70.07;;;43.13;;
18407;SDS011;9330;52.210;21.174;2024-03-08T07:01:35;71.45;;;44.65;;
18407;SDS011;9330;52.210;21.174;2024-03-08T07:04:03;77.13;;;48.08;;
18407;SDS011;9330;52.210;21.174;2024-03-08T07:06:31;78.93;;;48.80;;
18407;SDS011;9330;52.210;21.174;2024-03-08T07:08:59;76.40;;;46.22;;
18407;SDS011;9330;52.210;21.174;2024-03-08T07:11:27;76.32;;;46.08;;
18407;SDS011;9330;52.210;21.174;2024-03-08T07:13:54;70.28;;;44.03;;
18407;SDS011;9330;52.210;21.174;2024-03-08T07:16:21;71.65;;;43.55;;
18407;SDS011;9330;52.210;21.174;2024-03-08T07:18:49;71.30;;;44.28;;
18407;SDS011;9330;52.210;21.174;2024-03-08T07:21:17;68.13;;;42.85;;
18407;SDS011;9330;52.210;21.174;2024-03-08T07:23:45;67.85;;;42.33;;
18407;SDS011;9330;52.210;21.174;2024-03-08T07:26:39;61.70;;;39.30;;
18407;SDS011;9330;52.210;21.174;2024-03-08T07:29:06;65.60;;;39.92;;
18407;SDS011;9330;52.210;21.174;2024-03-08T07:31:33;61.10;;;38.45;;
18407;SDS011;9330;52.210;21.174;2024-03-08T07:34:15;56.47;;;36.88;;
18407;SDS011;9330;52.210;21.174;2024-03-08T07:36:42;57.00;;;36.03;;
18407;SDS011;9330;52.210;21.174;2024-03-08T07:39:09;61.17;;;37.65;;
18407;SDS011;9330;52.210;21.174;2024-03-08T07:41:36;62.78;;;38.40;;
18407;SDS011;9330;52.210;21.174;2024-03-08T07:44:06;60.15;;;37.42;;
18407;SDS011;9330;52.210;21.174;2024-03-08T07:46:34;52.63;;;34.85;;
18407;SDS011;9330;52.210;21.174;2024-03-08T07:49:01;61.70;;;38.63;;
18407;SDS011;9330;52.210;21.174;2024-03-08T07:51:28;57.92;;;38.28;;
18407;SDS011;9330;52.210;21.174;2024-03-08T07:53:55;58.42;;;36.05;;
18407;SDS011;9330;52.210;21.174;2024-03-08T07:56:22;60.92;;;36.38;;
18407;SDS011;9330;52.210;21.174;2024-03-08T07:58:50;57.78;;;36.58;;
18407;SDS011;9330;52.210;21.174;2024-03-08T08:01:19;62.65;;;37.08;;
18407;SDS011;9330;52.210;21.174;2024-03-08T08:03:46;55.33;;;35.75;;
18407;SDS011;9330;52.210;21.174;2024-03-08T08:06:14;47.28;;;32.25;;
18407;SDS011;9330;52.210;21.174;2024-03-08T08:08:41;47.75;;;32.03;;
18407;SDS011;9330;52.210;21.174;2024-03-08T08:11:08;47.92;;;31.20;;
18407;SDS011;9330;52.210;21.174;2024-03-08T08:13:36;43.08;;;27.92;;
18407;SDS011;9330;52.210;21.174;2024-03-08T08:16:04;43.80;;;28.35;;
18407;SDS011;9330;52.210;21.174;2024-03-08T08:18:33;40.00;;;26.42;;
18407;SDS011;9330;52.210;21.174;2024-03-08T08:21:00;33.33;;;22.90;;
18407;SDS011;9330;52.210;21.174;2024-03-08T08:23:27;37.55;;;23.17;;
18407;SDS011;9330;52.210;21.174;2024-03-08T08:25:54;28.83;;;19.35;;
18407;SDS011;9330;52.210;21.174;2024-03-08T08:28:21;31.25;;;21.20;;
18407;SDS011;9330;52.210;21.174;2024-03-08T08:30:48;27.10;;;19.20;;
18407;SDS011;9330;52.210;21.174;2024-03-08T08:33:15;25.42;;;17.67;;
18407;SDS011;9330;52.210;21.174;2024-03-08T08:35:43;25.80;;;18.40;;
18407;SDS011;9330;52.210;21.174;2024-03-08T08:38:12;27.55;;;18.83;;
18407;SDS011;9330;52.210;21.174;2024-03-08T08:40:39;22.95;;;16.15;;
18407;SDS011;9330;52.210;21.174;2024-03-08T08:43:06;24.23;;;15.85;;
18407;SDS011;9330;52.210;21.174;2024-03-08T08:45:34;22.90;;;16.05;;
18407;SDS011;9330;52.210;21.174;2024-03-08T08:48:01;24.08;;;17.00;;
18407;SDS011;9330;52.210;21.174;2024-03-08T08:50:30;24.45;;;16.95;;
18407;SDS011;9330;52.210;21.174;2024-03-08T08:52:58;29.13;;;19.05;;
18407;SDS011;9330;52.210;21.174;2024-03-08T08:55:25;25.10;;;16.58;;
18407;SDS011;9330;52.210;21.174;2024-03-08T08:57:52;21.60;;;14.57;;
18407;SDS011;9330;52.210;21.174;2024-03-08T09:00:19;19.35;;;13.57;;
18407;SDS011;9330;52.210;21.174;2024-03-08T09:02:49;15.68;;;11.02;;
18407;SDS011;9330;52.210;21.174;2024-03-08T09:05:16;17.67;;;12.05;;
18407;SDS011;9330;52.210;21.174;2024-03-08T09:07:43;20.77;;;13.23;;
18407;SDS011;9330;52.210;21.174;2024-03-08T09:10:11;20.52;;;14.40;;
18407;SDS011;9330;52.210;21.174;2024-03-08T09:12:39;19.70;;;13.00;;
18407;SDS011;9330;52.210;21.174;2024-03-08T09:15:09;19.85;;;14.52;;
18407;SDS011;9330;52.210;21.174;2024-03-08T09:17:36;15.50;;;11.73;;
18407;SDS011;9330;52.210;21.174;2024-03-08T09:20:05;19.77;;;13.00;;
18407;SDS011;9330;52.210;21.174;2024-03-08T09:22:33;19.67;;;13.80;;
18407;SDS011;9330;52.210;21.174;2024-03-08T09:25:00;18.15;;;13.25;;
18407;SDS011;9330;52.210;21.174;2024-03-08T09:27:31;20.10;;;13.75;;
18407;SDS011;9330;52.210;21.174;2024-03-08T09:29:59;22.00;;;13.82;;
18407;SDS011;9330;52.210;21.174;2024-03-08T09:32:26;18.08;;;13.73;;
18407;SDS011;9330;52.210;21.174;2024-03-08T09:34:53;22.17;;;14.57;;
18407;SDS011;9330;52.210;21.174;2024-03-08T09:37:21;19.15;;;12.48;;
18407;SDS011;9330;52.210;21.174;2024-03-08T09:39:48;16.48;;;12.27;;
18407;SDS011;9330;52.210;21.174;2024-03-08T09:42:15;18.27;;;12.75;;
18407;SDS011;9330;52.210;21.174;2024-03-08T09:44:45;18.33;;;11.18;;
18407;SDS011;9330;52.210;21.174;2024-03-08T09:47:12;18.58;;;11.90;;
18407;SDS011;9330;52.210;21.174;2024-03-08T09:49:40;15.52;;;10.98;;
18407;SDS011;9330;52.210;21.174;2024-03-08T09:52:08;16.10;;;10.90;;
18407;SDS011;9330;52.210;21.174;2024-03-08T09:54:38;19.38;;;11.18;;
18407;SDS011;9330;52.210;21.174;2024-03-08T09:57:09;17.90;;;11.90;;
18407;SDS011;9330;52.210;21.174;2024-03-08T09:59:37;16.42;;;10.82;;
18407;SDS011;9330;52.210;21.174;2024-03-08T10:02:15;15.95;;;10.85;;
18407;SDS011;9330;52.210;21.174;2024-03-08T10:04:42;15.73;;;11.32;;
18407;SDS011;9330;52.210;21.174;2024-03-08T10:07:11;16.55;;;10.60;;
18407;SDS011;9330;52.210;21.174;2024-03-08T10:09:38;17.35;;;10.90;;
18407;SDS011;9330;52.210;21.174;2024-03-08T10:12:06;16.92;;;11.23;;
18407;SDS011;9330;52.210;21.174;2024-03-08T10:14:38;15.07;;;10.38;;
18407;SDS011;9330;52.210;21.174;2024-03-08T10:17:06;14.98;;;10.18;;
18407;SDS011;9330;52.210;21.174;2024-03-08T10:19:35;17.42;;;10.85;;
18407;SDS011;9330;52.210;21.174;2024-03-08T10:22:02;14.15;;;9.80;;
18407;SDS011;9330;52.210;21.174;2024-03-08T10:24:29;15.50;;;10.68;;
18407;SDS011;9330;52.210;21.174;2024-03-08T10:26:58;17.95;;;11.45;;
18407;SDS011;9330;52.210;21.174;2024-03-08T10:29:26;17.42;;;10.52;;
18407;SDS011;9330;52.210;21.174;2024-03-08T10:31:54;15.80;;;10.82;;
18407;SDS011;9330;52.210;21.174;2024-03-08T10:34:22;15.40;;;10.57;;
18407;SDS011;9330;52.210;21.174;2024-03-08T10:36:51;14.30;;;10.13;;
18407;SDS011;9330;52.210;21.174;2024-03-08T10:39:21;14.93;;;11.13;;
18407;SDS011;9330;52.210;21.174;2024-03-08T10:41:51;17.27;;;11.35;;
18407;SDS011;9330;52.210;21.174;2024-03-08T10:44:23;17.17;;;11.93;;
18407;SDS011;9330;52.210;21.174;2024-03-08T10:47:01;16.77;;;10.35;;
18407;SDS011;9330;52.210;21.174;2024-03-08T10:49:37;14.10;;;9.82;;
18407;SDS011;9330;52.210;21.174;2024-03-08T10:52:06;14.52;;;10.90;;
18407;SDS011;9330;52.210;21.174;2024-03-08T10:54:34;16.42;;;10.77;;
18407;SDS011;9330;52.210;21.174;2024-03-08T10:57:05;16.00;;;10.90;;
18407;SDS011;9330;52.210;21.174;2024-03-08T10:59:33;16.10;;;10.50;;
18407;SDS011;9330;52.210;21.174;2024-03-08T11:02:01;18.30;;;11.20;;
18407;SDS011;9330;52.210;21.174;2024-03-08T11:04:30;14.80;;;10.75;;
18407;SDS011;9330;52.210;21.174;2024-03-08T11:07:00;15.90;;;10.60;;
18407;SDS011;9330;52.210;21.174;2024-03-08T11:09:34;13.20;;;10.13;;
18407;SDS011;9330;52.210;21.174;2024-03-08T11:14:55;16.45;;;10.60;;
18407;SDS011;9330;52.210;21.174;2024-03-08T11:17:26;13.02;;;9.13;;
18407;SDS011;9330;52.210;21.174;2024-03-08T11:20:10;13.68;;;10.00;;
18407;SDS011;9330;52.210;21.174;2024-03-08T11:22:41;14.45;;;10.25;;
18407;SDS011;9330;52.210;21.174;2024-03-08T11:25:36;15.82;;;10.43;;
18407;SDS011;9330;52.210;21.174;2024-03-08T11:32:12;14.10;;;10.05;;
18407;SDS011;9330;52.210;21.174;2024-03-08T11:35:06;16.45;;;10.35;;
18407;SDS011;9330;52.210;21.174;2024-03-08T11:37:34;15.13;;;10.68;;
18407;SDS011;9330;52.210;21.174;2024-03-08T11:40:01;14.52;;;9.93;;
18407;SDS011;9330;52.210;21.174;2024-03-08T11:42:43;17.52;;;10.65;;
18407;SDS011;9330;52.210;21.174;2024-03-08T11:45:12;15.10;;;10.30;;
18407;SDS011;9330;52.210;21.174;2024-03-08T11:47:42;14.80;;;10.55;;
18407;SDS011;9330;52.210;21.174;2024-03-08T11:50:12;13.43;;;9.98;;
18407;SDS011;9330;52.210;21.174;2024-03-08T11:52:39;15.38;;;10.35;;
18407;SDS011;9330;52.210;21.174;2024-03-08T11:55:06;15.00;;;10.45;;
18407;SDS011;9330;52.210;21.174;2024-03-08T11:57:33;13.90;;;9.30;;
18407;SDS011;9330;52.210;21.174;2024-03-08T12:00:02;13.65;;;8.90;;
18407;SDS011;9330;52.210;21.174;2024-03-08T12:02:32;15.05;;;10.18;;
18407;SDS011;9330;52.210;21.174;2024-03-08T12:05:03;16.48;;;10.93;;
18407;SDS011;9330;52.210;21.174;2024-03-08T12:07:34;14.38;;;10.60;;
18407;SDS011;9330;52.210;21.174;2024-03-08T12:10:14;16.48;;;11.02;;
18407;SDS011;9330;52.210;21.174;2024-03-08T12:12:42;15.10;;;9.88;;
18407;SDS011;9330;52.210;21.174;2024-03-08T12:15:11;16.92;;;11.07;;
18407;SDS011;9330;52.210;21.174;2024-03-08T12:17:37;14.57;;;11.00;;
18407;SDS011;9330;52.210;21.174;2024-03-08T12:20:11;13.77;;;9.77;;
18407;SDS011;9330;52.210;21.174;2024-03-08T12:22:40;14.93;;;9.63;;
18407;SDS011;9330;52.210;21.174;2024-03-08T12:25:08;15.07;;;10.60;;
18407;SDS011;9330;52.210;21.174;2024-03-08T12:27:37;13.13;;;10.10;;
18407;SDS011;9330;52.210;21.174;2024-03-08T12:30:16;17.85;;;13.82;;
18407;SDS011;9330;52.210;21.174;2024-03-08T12:32:49;13.95;;;9.93;;
18407;SDS011;9330;52.210;21.174;2024-03-08T12:35:19;12.13;;;9.38;;
18407;SDS011;9330;52.210;21.174;2024-03-08T12:37:47;13.35;;;10.55;;
18407;SDS011;9330;52.210;21.174;2024-03-08T12:40:16;14.73;;;9.73;;
18407;SDS011;9330;52.210;21.174;2024-03-08T12:42:43;12.93;;;9.93;;
18407;SDS011;9330;52.210;21.174;2024-03-08T12:45:12;13.13;;;10.02;;
18407;SDS011;9330;52.210;21.174;2024-03-08T12:47:41;13.38;;;11.13;;
18407;SDS011;9330;52.210;21.174;2024-03-08T12:50:09;20.38;;;18.38;;
18407;SDS011;9330;52.210;21.174;2024-03-08T12:52:36;13.13;;;10.93;;
18407;SDS011;9330;52.210;21.174;2024-03-08T12:55:03;13.35;;;10.15;;
18407;SDS011;9330;52.210;21.174;2024-03-08T12:57:32;14.13;;;10.18;;
18407;SDS011;9330;52.210;21.174;2024-03-08T13:00:00;14.57;;;11.43;;
18407;SDS011;9330;52.210;21.174;2024-03-08T13:02:29;15.98;;;10.98;;
18407;SDS011;9330;52.210;21.174;2024-03-08T13:04:58;16.58;;;10.48;;
18407;SDS011;9330;52.210;21.174;2024-03-08T13:07:26;14.85;;;10.23;;
18407;SDS011;9330;52.210;21.174;2024-03-08T13:09:53;13.40;;;10.13;;
18407;SDS011;9330;52.210;21.174;2024-03-08T13:12:20;15.13;;;10.25;;
18407;SDS011;9330;52.210;21.174;2024-03-08T13:14:46;16.52;;;10.55;;
18407;SDS011;9330;52.210;21.174;2024-03-08T13:17:14;14.15;;;10.32;;
18407;SDS011;9330;52.210;21.174;2024-03-08T13:19:41;15.27;;;10.32;;
18407;SDS011;9330;52.210;21.174;2024-03-08T13:22:09;14.95;;;10.48;;
18407;SDS011;9330;52.210;21.174;2024-03-08T13:24:38;16.00;;;10.57;;
18407;SDS011;9330;52.210;21.174;2024-03-08T13:27:06;17.33;;;10.90;;
18407;SDS011;9330;52.210;21.174;2024-03-08T13:29:44;13.82;;;10.32;;
18407;SDS011;9330;52.210;21.174;2024-03-08T13:32:13;18.38;;;10.60;;
18407;SDS011;9330;52.210;21.174;2024-03-08T13:34:40;14.75;;;10.65;;
18407;SDS011;9330;52.210;21.174;2024-03-08T13:37:07;16.50;;;10.27;;
18407;SDS011;9330;52.210;21.174;2024-03-08T13:39:36;18.30;;;11.07;;
18407;SDS011;9330;52.210;21.174;2024-03-08T13:42:08;15.45;;;10.38;;
18407;SDS011;9330;52.210;21.174;2024-03-08T13:44:38;15.23;;;10.40;;
18407;SDS011;9330;52.210;21.174;2024-03-08T13:47:05;15.90;;;10.57;;
18407;SDS011;9330;52.210;21.174;2024-03-08T13:49:32;15.90;;;10.90;;
18407;SDS011;9330;52.210;21.174;2024-03-08T13:51:59;14.38;;;9.93;;
18407;SDS011;9330;52.210;21.174;2024-03-08T13:54:28;15.48;;;9.10;;
18407;SDS011;9330;52.210;21.174;2024-03-08T13:56:56;14.75;;;10.00;;
18407;SDS011;9330;52.210;21.174;2024-03-08T13:59:23;16.38;;;10.43;;
18407;SDS011;9330;52.210;21.174;2024-03-08T14:01:54;15.98;;;10.52;;
18407;SDS011;9330;52.210;21.174;2024-03-08T14:04:22;13.63;;;9.95;;
18407;SDS011;9330;52.210;21.174;2024-03-08T14:06:49;15.63;;;10.02;;
18407;SDS011;9330;52.210;21.174;2024-03-08T14:09:16;16.20;;;10.60;;
18407;SDS011;9330;52.210;21.174;2024-03-08T14:11:45;19.45;;;10.77;;
18407;SDS011;9330;52.210;21.174;2024-03-08T14:14:12;17.73;;;10.93;;
18407;SDS011;9330;52.210;21.174;2024-03-08T14:16:39;17.45;;;11.25;;
18407;SDS011;9330;52.210;21.174;2024-03-08T14:19:06;17.30;;;11.05;;
18407;SDS011;9330;52.210;21.174;2024-03-08T14:21:35;16.17;;;10.25;;
18407;SDS011;9330;52.210;21.174;2024-03-08T14:24:04;15.32;;;10.57;;
18407;SDS011;9330;52.210;21.174;2024-03-08T14:26:31;15.60;;;10.23;;
18407;SDS011;9330;52.210;21.174;2024-03-08T14:29:00;13.05;;;9.18;;
18407;SDS011;9330;52.210;21.174;2024-03-08T14:31:27;18.85;;;10.32;;
18407;SDS011;9330;52.210;21.174;2024-03-08T14:33:55;16.50;;;10.32;;
18407;SDS011;9330;52.210;21.174;2024-03-08T14:36:23;13.10;;;9.55;;